createdAt,value
2023-05-22T00:01:49.077Z,10.73
2023-05-22T00:04:26.800Z,10.84
2023-05-22T00:06:56.160Z,10.95
2023-05-22T00:09:26.743Z,10.92
2023-05-22T00:14:47.419Z,10.96
2023-05-22T00:17:19.029Z,10.96
2023-05-22T00:19:48.445Z,10.96
2023-05-22T00:22:19.266Z,10.83
2023-05-22T00:24:48.708Z,10.79
2023-05-22T00:27:19.592Z,10.75
2023-05-22T00:29:54.124Z,10.70
2023-05-22T00:35:01.166Z,10.55
2023-05-22T00:37:30.734Z,10.56
2023-05-22T00:40:13.998Z,10.62
2023-05-22T00:42:45.322Z,10.64
2023-05-22T00:45:20.012Z,10.67
2023-05-22T00:47:51.436Z,10.69
2023-05-22T00:50:22.486Z,10.67
2023-05-22T00:52:51.745Z,10.65
2023-05-22T00:58:12.608Z,10.42
2023-05-22T01:00:47.703Z,10.29
2023-05-22T01:03:25.564Z,10.14
2023-05-22T01:05:55.481Z,10.01
2023-05-22T01:08:25.802Z,9.96
2023-05-22T01:11:04.023Z,9.99
2023-05-22T01:13:44.966Z,10.04
2023-05-22T01:16:22.800Z,10.18
2023-05-22T01:19:03.763Z,10.29
2023-05-22T01:21:45.820Z,10.20
2023-05-22T01:24:53.958Z,10.18
2023-05-22T01:28:18.067Z,10.12
2023-05-22T01:31:02.318Z,10.27
2023-05-22T01:33:36.112Z,10.32
2023-05-22T01:36:19.733Z,10.43
2023-05-22T01:38:54.877Z,10.26
2023-05-22T01:41:25.572Z,10.42
2023-05-22T01:43:55.282Z,10.44
2023-05-22T01:46:27.623Z,10.47
2023-05-22T01:49:02.993Z,10.44
2023-05-22T01:51:41.658Z,10.45
2023-05-22T01:54:17.995Z,10.45
2023-05-22T01:56:54.560Z,10.49
2023-05-22T01:59:37.779Z,10.51
2023-05-22T02:02:12.012Z,10.63
2023-05-22T02:04:46.858Z,10.65
2023-05-22T02:07:20.427Z,10.60
2023-05-22T02:09:52.879Z,10.58
2023-05-22T02:12:23.478Z,10.63
2023-05-22T02:15:00.056Z,10.63
2023-05-22T02:17:33.982Z,10.60
2023-05-22T02:20:14.125Z,10.74
2023-05-22T02:22:46.937Z,10.79
2023-05-22T02:25:22.819Z,10.83
2023-05-22T02:27:53.132Z,10.86
2023-05-22T02:30:23.443Z,10.84
2023-05-22T02:32:57.989Z,10.76
2023-05-22T02:35:27.481Z,10.72
2023-05-22T02:37:57.129Z,10.63
2023-05-22T02:40:26.836Z,10.52
2023-05-22T02:42:56.176Z,10.46
2023-05-22T02:45:25.517Z,10.54
2023-05-22T02:48:01.937Z,10.57
2023-05-22T02:50:31.685Z,10.67
2023-05-22T02:53:01.149Z,10.76
2023-05-22T02:55:30.602Z,10.78
2023-05-22T02:58:05.951Z,10.81
2023-05-22T03:00:35.773Z,10.86
2023-05-22T03:05:47.410Z,11.08
2023-05-22T03:08:17.912Z,11.12
2023-05-22T03:10:47.258Z,11.19
2023-05-22T03:13:21.565Z,11.30
2023-05-22T03:15:51.215Z,11.36
2023-05-22T03:18:25.928Z,11.45
2023-05-22T03:20:57.481Z,11.53
2023-05-22T03:23:32.446Z,11.62
2023-05-22T03:26:01.797Z,11.70
2023-05-22T03:28:35.736Z,11.66
2023-05-22T03:31:05.534Z,11.55
2023-05-22T03:33:45.177Z,11.52
2023-05-22T03:36:25.597Z,11.60
2023-05-22T03:41:31.834Z,11.71
2023-05-22T03:44:02.866Z,11.87
2023-05-22T03:46:37.334Z,11.94
2023-05-22T03:49:10.258Z,12.00
2023-05-22T03:51:39.793Z,12.26
2023-05-22T03:54:09.123Z,12.47
2023-05-22T03:56:39.980Z,12.66
2023-05-22T03:59:09.628Z,12.70
2023-05-22T04:01:39.477Z,12.75
2023-05-22T04:04:11.902Z,12.72
2023-05-22T04:06:42.694Z,12.76
2023-05-22T04:09:13.582Z,12.89
2023-05-22T04:11:43.008Z,13.07
2023-05-22T04:14:12.449Z,13.18
2023-05-22T04:16:41.726Z,13.22
2023-05-22T04:19:13.642Z,13.07
2023-05-22T04:21:49.002Z,12.98
2023-05-22T04:24:22.672Z,12.81
2023-05-22T04:26:52.508Z,12.76
2023-05-22T04:29:53.317Z,12.59
2023-05-22T04:32:23.465Z,12.54
2023-05-22T04:34:54.706Z,12.43
2023-05-22T04:37:35.831Z,12.33
2023-05-22T04:40:11.318Z,12.28
2023-05-22T04:42:47.097Z,12.21
2023-05-22T04:45:19.147Z,12.20
2023-05-22T04:48:16.666Z,12.22
2023-05-22T04:50:57.563Z,12.22
2023-05-22T04:53:33.230Z,12.21
2023-05-22T04:56:02.678Z,12.26
2023-05-22T04:58:32.540Z,12.30
2023-05-22T05:01:03.140Z,12.32
2023-05-22T05:03:44.627Z,12.35
2023-05-22T05:06:16.853Z,12.35
2023-05-22T05:08:47.735Z,12.39
2023-05-22T05:11:27.445Z,12.39
2023-05-22T05:14:08.035Z,12.43
2023-05-22T05:19:12.038Z,12.47
2023-05-22T05:21:44.397Z,12.50
2023-05-22T05:24:19.962Z,12.49
2023-05-22T05:27:03.099Z,12.43
2023-05-22T05:29:32.779Z,12.44
2023-05-22T05:32:08.866Z,12.49
2023-05-22T05:34:58.510Z,12.53
2023-05-22T05:37:56.217Z,12.63
2023-05-22T05:40:27.204Z,12.64
2023-05-22T05:43:03.312Z,12.64
2023-05-22T05:45:33.290Z,12.66
2023-05-22T05:48:02.850Z,12.62
2023-05-22T05:50:32.946Z,12.65
2023-05-22T05:53:10.918Z,12.73
2023-05-22T05:55:41.875Z,12.86
2023-05-22T05:58:17.830Z,12.94
2023-05-22T06:01:11.713Z,13.07
2023-05-22T06:06:26.486Z,13.00
2023-05-22T06:09:16.790Z,13.04
2023-05-22T06:12:12.301Z,13.11
2023-05-22T06:14:42.983Z,13.10
2023-05-22T06:17:12.538Z,13.21
2023-05-22T06:19:44.302Z,13.21
2023-05-22T06:22:15.459Z,13.19
2023-05-22T06:24:55.108Z,13.30
2023-05-22T06:27:28.298Z,13.21
2023-05-22T06:29:57.947Z,13.22
2023-05-22T06:32:40.934Z,13.26
2023-05-22T06:35:12.469Z,13.09
2023-05-22T06:37:43.430Z,13.24
2023-05-22T06:40:15.669Z,13.26
2023-05-22T06:42:59.841Z,13.16
2023-05-22T06:45:37.297Z,13.16
2023-05-22T06:48:27.639Z,13.39
2023-05-22T06:51:23.163Z,13.59
2023-05-22T06:53:56.534Z,13.74
2023-05-22T06:56:38.326Z,13.88
2023-05-22T06:59:12.907Z,14.15
2023-05-22T07:05:18.848Z,14.81
2023-05-22T07:08:03.219Z,15.13
2023-05-22T07:10:32.782Z,15.42
2023-05-22T07:13:04.511Z,15.84
2023-05-22T07:15:35.733Z,16.28
2023-05-22T07:18:09.383Z,16.65
2023-05-22T07:20:41.628Z,16.85
2023-05-22T07:23:18.404Z,17.03
2023-05-22T07:25:48.197Z,17.23
2023-05-22T07:31:04.055Z,17.36
2023-05-22T07:33:34.252Z,17.26
2023-05-22T07:36:04.340Z,17.14
2023-05-22T07:38:33.747Z,17.26
2023-05-22T07:41:09.818Z,17.69
2023-05-22T07:43:41.733Z,17.96
2023-05-22T07:46:13.743Z,18.01
2023-05-22T07:48:53.793Z,17.94
2023-05-22T07:51:23.286Z,17.83
2023-05-22T07:53:55.475Z,18.05
2023-05-22T07:56:39.318Z,18.40
2023-05-22T07:59:19.348Z,18.60
2023-05-22T08:01:48.907Z,18.72
2023-05-22T08:04:19.169Z,18.91
2023-05-22T08:06:54.735Z,18.93
2023-05-22T08:09:29.169Z,18.94
2023-05-22T08:11:58.535Z,19.21
2023-05-22T08:14:34.885Z,19.58
2023-05-22T08:17:11.600Z,19.81
2023-05-22T08:19:41.462Z,19.92
2023-05-22T08:22:10.968Z,19.88
2023-05-22T08:24:40.714Z,19.66
2023-05-22T08:27:10.706Z,19.87
2023-05-22T08:29:42.088Z,20.05
2023-05-22T08:32:11.625Z,19.84
2023-05-22T08:37:27.222Z,19.65
2023-05-22T08:39:56.637Z,19.28
2023-05-22T08:42:26.553Z,18.67
2023-05-22T08:45:03.812Z,18.43
2023-05-22T08:47:43.896Z,18.33
2023-05-22T08:52:52.753Z,18.72
2023-05-22T08:55:22.582Z,19.28
2023-05-22T08:57:53.533Z,19.85
2023-05-22T09:00:25.562Z,19.97
2023-05-22T09:02:55.528Z,20.17
2023-05-22T09:05:26.429Z,20.50
2023-05-22T09:08:02.607Z,20.56
2023-05-22T09:10:38.659Z,20.41
2023-05-22T09:13:10.558Z,20.58
2023-05-22T09:15:42.170Z,21.15
2023-05-22T09:18:11.819Z,21.71
2023-05-22T09:20:41.606Z,21.36
2023-05-22T09:23:17.455Z,20.82
2023-05-22T09:25:47.881Z,20.10
2023-05-22T09:28:22.289Z,19.91
2023-05-22T09:30:54.627Z,19.88
2023-05-22T09:33:27.056Z,19.94
2023-05-22T09:35:56.756Z,19.98
2023-05-22T09:38:30.007Z,19.68
2023-05-22T09:40:59.567Z,19.35
2023-05-22T09:43:28.880Z,19.36
2023-05-22T09:46:04.110Z,19.35
2023-05-22T09:48:38.825Z,19.55
2023-05-22T09:51:10.009Z,19.39
2023-05-22T09:53:44.936Z,19.46
2023-05-22T09:56:34.819Z,19.49
2023-05-22T09:59:10.176Z,19.46
2023-05-22T10:01:43.615Z,19.51
2023-05-22T10:04:15.812Z,19.40
2023-05-22T10:06:52.133Z,19.48
2023-05-22T10:09:25.366Z,19.56
2023-05-22T10:14:50.549Z,19.29
2023-05-22T10:17:22.491Z,19.11
2023-05-22T10:22:36.340Z,19.26
2023-05-22T10:25:09.111Z,19.42
2023-05-22T10:27:41.054Z,19.33
2023-05-22T10:30:37.087Z,19.31
2023-05-22T10:33:38.844Z,19.29
2023-05-22T10:36:12.654Z,19.34
2023-05-22T10:39:05.850Z,19.37
2023-05-22T10:41:36.557Z,19.66
2023-05-22T10:47:12.957Z,19.79
2023-05-22T10:49:46.534Z,19.76
2023-05-22T10:52:18.631Z,19.70
2023-05-22T10:54:53.210Z,19.67
2023-05-22T10:57:41.728Z,19.60
2023-05-22T11:00:14.388Z,19.48
2023-05-22T11:02:47.652Z,19.49
2023-05-22T11:08:54.507Z,19.72
2023-05-22T11:11:47.146Z,19.80
2023-05-22T11:14:20.030Z,20.07
2023-05-22T11:16:49.554Z,20.12
2023-05-22T11:19:23.367Z,20.22
2023-05-22T11:22:15.911Z,20.33
2023-05-22T11:24:45.380Z,20.31
2023-05-22T11:27:15.125Z,20.38
2023-05-22T11:29:46.513Z,20.35
2023-05-22T11:32:20.565Z,20.52
2023-05-22T11:34:56.288Z,20.51
2023-05-22T11:37:27.668Z,20.68
2023-05-22T11:40:08.429Z,20.78
2023-05-22T11:42:43.042Z,20.70
2023-05-22T11:45:13.754Z,20.79
2023-05-22T11:47:43.451Z,20.88
2023-05-22T11:50:41.655Z,20.83
2023-05-22T11:53:14.116Z,20.91
2023-05-22T11:55:44.499Z,21.13
2023-05-22T11:58:13.633Z,21.07
2023-05-22T12:00:48.153Z,21.25
2023-05-22T12:03:21.604Z,21.52
2023-05-22T12:05:52.977Z,21.72
2023-05-22T12:08:24.601Z,21.69
2023-05-22T12:11:09.517Z,21.63
2023-05-22T12:13:38.949Z,21.62
2023-05-22T12:16:21.402Z,21.50
2023-05-22T12:18:55.365Z,21.36
2023-05-22T12:21:43.630Z,21.36
2023-05-22T12:24:15.267Z,21.58
2023-05-22T12:26:52.618Z,21.62
2023-05-22T12:29:37.578Z,21.69
2023-05-22T12:32:14.299Z,21.86
2023-05-22T12:34:47.944Z,22.04
2023-05-22T12:37:21.799Z,22.12
2023-05-22T12:40:05.620Z,22.07
2023-05-22T12:42:35.570Z,22.00
2023-05-22T12:51:26.610Z,21.84
2023-05-22T12:53:56.021Z,21.95
2023-05-22T12:56:25.642Z,22.07
2023-05-22T12:59:06.248Z,22.09
2023-05-22T13:01:35.963Z,22.26
2023-05-22T13:04:05.431Z,22.38
2023-05-22T13:06:43.333Z,22.52
2023-05-22T13:09:16.507Z,22.73
2023-05-22T13:11:45.932Z,22.82
2023-05-22T13:14:15.350Z,22.75
2023-05-22T13:16:54.762Z,22.83
2023-05-22T13:19:24.223Z,22.96
2023-05-22T13:22:07.179Z,23.09
2023-05-22T13:24:36.723Z,23.22
2023-05-22T13:27:07.115Z,23.39
2023-05-22T13:32:34.999Z,23.67
2023-05-22T13:35:10.781Z,23.54
2023-05-22T13:37:47.736Z,23.37
2023-05-22T13:40:17.982Z,23.46
2023-05-22T13:42:57.503Z,23.59
2023-05-22T13:45:27.372Z,23.63
2023-05-22T13:47:56.980Z,23.70
2023-05-22T13:50:31.505Z,23.62
2023-05-22T13:53:03.055Z,23.58
2023-05-22T13:55:32.472Z,23.61
2023-05-22T13:58:02.126Z,23.46
2023-05-22T14:00:46.617Z,23.17
2023-05-22T14:03:18.220Z,22.52
2023-05-22T14:05:47.866Z,22.21
2023-05-22T14:08:19.064Z,21.80
2023-05-22T14:13:24.170Z,21.39
2023-05-22T14:15:53.499Z,21.60
2023-05-22T14:18:23.462Z,21.78
2023-05-22T14:20:52.763Z,21.83
2023-05-22T14:23:24.763Z,21.82
2023-05-22T14:25:54.357Z,21.79
2023-05-22T14:28:24.184Z,21.72
2023-05-22T14:30:53.619Z,21.78
2023-05-22T14:33:28.007Z,21.74
2023-05-22T14:36:02.315Z,21.71
2023-05-22T14:38:35.847Z,21.57
2023-05-22T14:41:10.833Z,21.27
2023-05-22T14:43:42.509Z,21.07
2023-05-22T14:46:11.578Z,20.94
2023-05-22T14:48:40.921Z,20.72
2023-05-22T14:51:10.261Z,20.64
2023-05-22T14:53:41.840Z,20.53
2023-05-22T14:56:11.010Z,20.60
2023-05-22T14:58:40.253Z,20.14
2023-05-22T15:01:10.133Z,19.87
2023-05-22T15:03:39.903Z,19.65
2023-05-22T15:06:09.572Z,19.52
2023-05-22T15:08:41.286Z,19.54
2023-05-22T15:11:10.318Z,19.66
2023-05-22T15:13:39.531Z,19.37
2023-05-22T15:16:08.913Z,19.36
2023-05-22T15:21:13.215Z,19.19
2023-05-22T15:23:44.567Z,19.11
2023-05-22T15:26:14.327Z,19.05
2023-05-22T15:28:43.722Z,18.97
2023-05-22T15:33:48.367Z,18.95
2023-05-22T15:36:17.666Z,18.94
2023-05-22T15:38:55.808Z,19.00
2023-05-22T15:41:30.091Z,19.03
2023-05-22T15:44:06.168Z,19.07
2023-05-22T15:46:35.699Z,19.33
2023-05-22T15:49:05.047Z,19.57
2023-05-22T15:51:44.556Z,19.84
2023-05-22T15:54:16.118Z,20.08
2023-05-22T15:59:26.122Z,20.46
2023-05-22T16:01:55.727Z,20.23
2023-05-22T16:04:25.115Z,20.10
2023-05-22T16:09:36.029Z,19.56
2023-05-22T16:12:06.362Z,19.47
2023-05-22T16:14:35.783Z,19.39
2023-05-22T16:17:10.325Z,19.34
2023-05-22T16:19:39.737Z,19.35
2023-05-22T16:22:17.233Z,19.38
2023-05-22T16:24:48.490Z,19.45
2023-05-22T16:30:04.858Z,19.54
2023-05-22T16:32:39.876Z,19.29
2023-05-22T16:35:10.888Z,18.99
2023-05-22T16:37:45.556Z,18.70
2023-05-22T16:40:17.342Z,18.47
2023-05-22T16:42:47.588Z,18.28
2023-05-22T16:45:16.950Z,18.06
2023-05-22T16:48:01.212Z,17.94
2023-05-22T16:50:30.921Z,17.73
2023-05-22T16:53:00.821Z,17.56
2023-05-22T16:55:32.625Z,17.43
2023-05-22T16:58:02.908Z,17.42
2023-05-22T17:00:32.387Z,17.34
2023-05-22T17:03:02.846Z,17.27
2023-05-22T17:05:37.659Z,17.24
2023-05-22T17:08:07.570Z,17.22
2023-05-22T17:10:39.104Z,17.27
2023-05-22T17:13:20.413Z,17.30
2023-05-22T17:15:50.381Z,17.43
2023-05-22T17:18:21.459Z,17.48
2023-05-22T17:20:51.539Z,17.49
2023-05-22T17:23:21.153Z,17.40
2023-05-22T17:25:52.818Z,17.32
2023-05-22T17:28:22.261Z,17.05
2023-05-22T17:30:51.558Z,17.01
2023-05-22T17:33:21.642Z,16.92
2023-05-22T17:35:52.312Z,16.81
2023-05-22T17:38:26.768Z,16.76
2023-05-22T17:41:00.455Z,16.76
2023-05-22T17:43:34.670Z,16.67
2023-05-22T17:46:09.486Z,16.46
2023-05-22T17:48:40.595Z,16.34
2023-05-22T17:51:10.223Z,16.29
2023-05-22T17:53:58.813Z,16.15
2023-05-22T17:56:36.340Z,16.00
2023-05-22T17:59:05.802Z,15.79
2023-05-22T18:01:35.492Z,15.61
2023-05-22T18:04:05.226Z,15.63
2023-05-22T18:06:34.874Z,15.68
2023-05-22T18:09:05.247Z,15.69
2023-05-22T18:11:36.482Z,15.77
2023-05-22T18:14:06.228Z,15.85
2023-05-22T18:16:40.776Z,15.89
2023-05-22T18:19:11.190Z,15.89
2023-05-22T18:21:55.397Z,15.97
2023-05-22T18:24:25.773Z,16.04
2023-05-22T18:26:57.353Z,16.08
2023-05-22T18:29:26.522Z,16.16
2023-05-22T18:31:56.211Z,16.09
2023-05-22T18:34:25.897Z,16.07
2023-05-22T18:36:57.072Z,16.10
2023-05-22T18:39:26.536Z,16.18
2023-05-22T18:41:58.450Z,16.23
2023-05-22T18:44:28.258Z,16.25
2023-05-22T18:46:57.626Z,16.24
2023-05-22T18:49:27.195Z,16.19
2023-05-22T18:51:56.764Z,16.11
2023-05-22T18:54:26.775Z,16.14
2023-05-22T18:56:58.348Z,16.11
2023-05-22T18:59:40.408Z,16.16
2023-05-22T19:02:30.021Z,15.96
2023-05-22T19:05:05.045Z,15.76
2023-05-22T19:07:35.191Z,15.64
2023-05-22T19:10:07.117Z,15.62
2023-05-22T19:12:39.975Z,15.48
2023-05-22T19:15:10.740Z,15.51
2023-05-22T19:17:58.570Z,15.50
2023-05-22T19:20:28.224Z,15.19
2023-05-22T19:22:58.246Z,15.14
2023-05-22T19:25:28.029Z,15.07
2023-05-22T19:28:04.931Z,15.09
2023-05-22T19:33:11.603Z,14.92
2023-05-22T19:35:41.260Z,14.66
2023-05-22T19:38:16.293Z,14.51
2023-05-22T19:40:46.022Z,14.34
2023-05-22T19:43:17.746Z,14.30
2023-05-22T19:45:52.164Z,14.39
2023-05-22T19:48:21.522Z,14.42
2023-05-22T19:50:50.976Z,14.42
2023-05-22T19:53:20.589Z,14.41
2023-05-22T19:55:50.473Z,14.37
2023-05-22T19:58:21.905Z,14.33
2023-05-22T20:00:51.379Z,14.32
2023-05-22T20:03:20.962Z,14.32
2023-05-22T20:05:59.394Z,14.47
2023-05-22T20:08:28.959Z,14.55
2023-05-22T20:10:58.438Z,14.59
2023-05-22T20:13:35.839Z,14.63
2023-05-22T20:16:11.296Z,14.67
2023-05-22T20:18:41.306Z,14.68
2023-05-22T20:21:11.487Z,14.62
2023-05-22T20:23:42.339Z,14.48
2023-05-22T20:26:11.826Z,14.48
2023-05-22T20:28:48.222Z,14.49
2023-05-22T20:31:17.893Z,14.48
2023-05-22T20:33:47.833Z,14.70
2023-05-22T20:36:18.434Z,14.83
2023-05-22T20:38:48.176Z,14.91
2023-05-22T20:41:24.029Z,14.94
2023-05-22T20:43:55.860Z,15.02
2023-05-22T20:49:00.159Z,15.05
2023-05-22T20:51:32.165Z,15.14
2023-05-22T20:54:06.689Z,15.18
2023-05-22T20:56:35.981Z,15.12
2023-05-22T20:59:13.921Z,15.21
2023-05-22T21:01:43.378Z,15.21
2023-05-22T21:04:12.783Z,15.21
2023-05-22T21:06:47.065Z,15.21
2023-05-22T21:09:21.450Z,15.18
2023-05-22T21:11:50.801Z,15.11
2023-05-22T21:14:22.184Z,15.10
2023-05-22T21:16:51.949Z,15.16
2023-05-22T21:19:21.394Z,15.12
2023-05-22T21:22:00.940Z,15.09
2023-05-22T21:24:42.278Z,15.06
2023-05-22T21:27:11.885Z,15.00
2023-05-22T21:29:57.957Z,14.93
2023-05-22T21:32:27.444Z,14.87
2023-05-22T21:34:56.834Z,14.76
2023-05-22T21:37:33.552Z,14.73
2023-05-22T21:40:03.714Z,14.64
2023-05-22T21:42:45.908Z,14.61
2023-05-22T21:45:23.880Z,14.55
2023-05-22T21:50:34.750Z,14.46
2023-05-22T21:53:04.097Z,14.43
2023-05-22T21:55:35.639Z,14.32
2023-05-22T21:58:05.185Z,14.34
2023-05-22T22:00:36.896Z,14.26
2023-05-22T22:03:06.145Z,14.30
2023-05-22T22:05:36.879Z,14.16
2023-05-22T22:08:11.253Z,14.12
2023-05-22T22:10:40.923Z,14.04
2023-05-22T22:13:10.815Z,13.95
2023-05-22T22:15:42.104Z,13.91
2023-05-22T22:18:16.719Z,13.86
2023-05-22T22:20:48.076Z,13.88
2023-05-22T22:23:17.749Z,13.85
2023-05-22T22:25:47.228Z,13.88
2023-05-22T22:30:54.590Z,13.78
2023-05-22T22:33:24.493Z,13.80
2023-05-22T22:35:59.613Z,13.81
2023-05-22T22:38:32.409Z,13.71
2023-05-22T22:41:03.898Z,13.73
2023-05-22T22:43:33.392Z,13.67
2023-05-22T22:46:04.590Z,13.61
2023-05-22T22:48:34.142Z,13.68
2023-05-22T22:51:04.678Z,13.64
2023-05-22T22:53:33.894Z,13.68
2023-05-22T22:56:03.706Z,13.67
2023-05-22T22:58:40.441Z,13.74
2023-05-22T23:01:12.088Z,13.73
2023-05-22T23:03:41.598Z,13.76
2023-05-22T23:06:10.974Z,13.74
2023-05-22T23:08:40.244Z,13.79
2023-05-22T23:13:44.939Z,13.76
2023-05-22T23:16:16.264Z,13.74
2023-05-22T23:21:21.028Z,13.75
2023-05-22T23:23:50.469Z,13.65
2023-05-22T23:26:20.074Z,13.59
2023-05-22T23:28:49.322Z,13.54
2023-05-22T23:31:20.700Z,13.46
2023-05-22T23:36:30.682Z,13.41
2023-05-22T23:39:00.238Z,13.37
2023-05-22T23:41:29.591Z,13.38
2023-05-22T23:44:09.370Z,13.30
2023-05-22T23:46:41.032Z,13.24
2023-05-22T23:49:10.281Z,13.26
2023-05-22T23:51:39.493Z,13.19
2023-05-22T23:54:09.362Z,13.17
2023-05-22T23:56:38.677Z,13.15
2023-05-22T23:59:12.987Z,13.11
